createdAt,value
2023-05-16T03:02:33.509Z,8.00
2023-05-16T03:05:01.131Z,8.10
2023-05-16T03:07:28.311Z,8.10
2023-05-16T03:09:55.506Z,8.10
2023-05-16T03:12:22.759Z,8.00
2023-05-16T03:14:49.922Z,8.00
2023-05-16T03:17:17.160Z,8.10
2023-05-16T03:19:44.301Z,8.10
2023-05-16T03:22:11.478Z,8.20
2023-05-16T03:24:38.694Z,8.20
2023-05-16T03:27:06.181Z,8.20
2023-05-16T03:29:33.754Z,8.10
2023-05-16T03:32:01.048Z,8.10
2023-05-16T03:34:28.437Z,8.10
2023-05-16T03:36:55.839Z,8.10
2023-05-16T03:39:23.212Z,8.10
2023-05-16T03:41:50.502Z,8.20
2023-05-16T03:44:17.628Z,8.20
2023-05-16T03:46:44.845Z,8.30
2023-05-16T03:49:11.987Z,8.30
2023-05-16T03:51:39.182Z,8.40
2023-05-16T03:54:06.374Z,8.40
2023-05-16T03:56:33.489Z,8.40
2023-05-16T03:59:00.592Z,8.30
2023-05-16T04:01:28.083Z,8.20
2023-05-16T04:03:55.668Z,8.10
2023-05-16T04:06:23.026Z,8.10
2023-05-16T04:08:50.395Z,8.20
2023-05-16T04:11:17.533Z,8.30
2023-05-16T04:13:44.814Z,8.30
2023-05-16T04:16:12.799Z,8.30
2023-05-16T04:18:40.066Z,8.30
2023-05-16T04:21:07.741Z,8.50
2023-05-16T04:23:34.914Z,8.50
2023-05-16T04:26:04.654Z,8.40
2023-05-16T04:28:32.494Z,8.50
2023-05-16T04:30:59.713Z,8.60
2023-05-16T04:33:26.899Z,8.60
2023-05-16T04:35:54.726Z,8.60
2023-05-16T04:38:22.569Z,8.40
2023-05-16T04:40:52.490Z,8.70
2023-05-16T04:43:20.366Z,8.70
2023-05-16T04:45:47.542Z,8.70
2023-05-16T04:48:15.352Z,8.90
2023-05-16T04:50:42.545Z,9.20
2023-05-16T04:53:09.948Z,9.20
2023-05-16T04:55:37.163Z,9.30
2023-05-16T04:58:04.343Z,9.40
2023-05-16T05:00:31.966Z,9.30
2023-05-16T05:02:59.210Z,9.30
2023-05-16T05:05:26.690Z,9.50
2023-05-16T05:07:54.257Z,9.30
2023-05-16T05:10:21.485Z,9.50
2023-05-16T05:12:48.704Z,9.60
2023-05-16T05:15:15.896Z,9.80
2023-05-16T05:17:43.221Z,9.70
2023-05-16T05:20:11.575Z,9.90
2023-05-16T05:22:38.789Z,10.00
2023-05-16T05:25:06.461Z,10.20
2023-05-16T05:27:33.626Z,10.30
2023-05-16T05:30:00.793Z,10.50
2023-05-16T05:32:27.965Z,10.90
2023-05-16T05:34:55.400Z,11.20
2023-05-16T05:37:22.591Z,11.40
2023-05-16T05:39:49.863Z,11.30
2023-05-16T05:42:17.151Z,11.30
2023-05-16T05:44:44.346Z,11.50
2023-05-16T05:47:11.936Z,11.80
2023-05-16T05:49:39.348Z,12.10
2023-05-16T05:52:06.751Z,12.40
2023-05-16T05:54:34.175Z,12.50
2023-05-16T05:57:01.551Z,12.50
2023-05-16T05:59:28.785Z,12.60
2023-05-16T06:01:56.142Z,12.80
2023-05-16T06:04:23.404Z,12.90
2023-05-16T06:06:50.899Z,12.90
2023-05-16T06:09:18.200Z,13.00
2023-05-16T06:11:45.985Z,13.10
2023-05-16T06:14:15.677Z,13.30
2023-05-16T06:16:43.129Z,13.60
2023-05-16T06:19:12.396Z,13.70
2023-05-16T06:21:39.732Z,13.80
2023-05-16T06:24:06.943Z,13.90
2023-05-16T06:26:34.479Z,14.00
2023-05-16T06:29:01.742Z,13.90
2023-05-16T06:31:28.975Z,13.80
2023-05-16T06:33:56.492Z,13.70
2023-05-16T06:36:23.632Z,13.50
2023-05-16T06:38:51.032Z,13.30
2023-05-16T06:41:18.192Z,13.20
2023-05-16T06:43:45.813Z,13.20
2023-05-16T06:46:13.056Z,13.00
2023-05-16T06:48:40.247Z,13.00
2023-05-16T06:51:07.485Z,13.00
2023-05-16T06:53:34.676Z,13.00
2023-05-16T06:56:04.293Z,13.00
2023-05-16T06:58:31.615Z,13.00
2023-05-16T07:00:58.807Z,12.80
2023-05-16T07:03:26.369Z,12.70
2023-05-16T07:05:53.824Z,12.80
2023-05-16T07:08:21.057Z,12.90
2023-05-16T07:10:48.295Z,12.80
2023-05-16T07:13:15.563Z,12.80
2023-05-16T07:15:42.888Z,12.80
2023-05-16T07:18:10.283Z,12.70
2023-05-16T07:20:37.503Z,12.80
2023-05-16T07:23:04.812Z,12.80
2023-05-16T07:25:32.178Z,12.90
2023-05-16T07:28:00.938Z,12.90
2023-05-16T07:30:28.408Z,13.10
2023-05-16T07:32:55.925Z,13.20
2023-05-16T07:35:23.235Z,13.30
2023-05-16T07:37:50.536Z,13.30
2023-05-16T07:40:18.599Z,13.30
2023-05-16T07:42:45.841Z,13.30
2023-05-16T07:45:13.040Z,13.20
2023-05-16T07:47:40.561Z,13.20
2023-05-16T07:50:08.233Z,13.00
2023-05-16T07:52:35.482Z,13.00
2023-05-16T07:55:03.356Z,13.00
2023-05-16T07:57:30.681Z,13.00
2023-05-16T07:59:57.969Z,13.00
2023-05-16T08:02:26.602Z,13.10
2023-05-16T08:04:53.974Z,13.10
2023-05-16T08:07:21.229Z,13.10
2023-05-16T08:09:48.412Z,13.10
2023-05-16T08:12:15.781Z,13.00
2023-05-16T08:14:43.029Z,13.10
2023-05-16T08:17:11.685Z,13.10
2023-05-16T08:19:39.484Z,13.10
2023-05-16T08:22:07.704Z,12.90
2023-05-16T08:24:35.808Z,13.00
2023-05-16T08:27:03.013Z,13.00
2023-05-16T08:29:31.658Z,13.00
2023-05-16T08:31:59.024Z,12.90
2023-05-16T08:34:26.604Z,12.90
2023-05-16T08:36:54.702Z,12.80
2023-05-16T08:39:21.921Z,12.90
2023-05-16T08:41:49.934Z,12.80
2023-05-16T08:44:22.050Z,12.70
2023-05-16T08:46:53.457Z,12.60
2023-05-16T08:49:21.772Z,12.60
2023-05-16T08:51:52.273Z,12.50
2023-05-16T08:54:19.648Z,12.60
2023-05-16T08:56:50.294Z,12.60
2023-05-16T08:59:19.332Z,12.50
2023-05-16T09:01:47.488Z,12.30
2023-05-16T09:04:15.996Z,12.40
2023-05-16T09:06:43.376Z,12.40
2023-05-16T09:09:12.964Z,12.40
2023-05-16T09:11:40.359Z,12.40
2023-05-16T09:14:07.601Z,12.40
2023-05-16T09:16:35.018Z,12.50
2023-05-16T09:19:02.560Z,12.50
2023-05-16T09:21:34.165Z,12.70
2023-05-16T09:24:05.587Z,12.60
2023-05-16T09:26:38.376Z,12.60
2023-05-16T09:29:14.790Z,12.40
2023-05-16T09:31:42.606Z,12.30
2023-05-16T09:34:13.416Z,12.30
2023-05-16T09:36:43.686Z,12.40
2023-05-16T09:39:15.402Z,12.30
2023-05-16T09:41:42.698Z,12.20
2023-05-16T09:44:10.000Z,12.10
2023-05-16T09:46:38.580Z,12.10
2023-05-16T09:49:06.295Z,12.00
2023-05-16T09:51:34.522Z,11.80
2023-05-16T09:54:01.782Z,11.80
2023-05-16T09:56:30.150Z,11.60
2023-05-16T09:58:57.592Z,11.50
2023-05-16T10:01:25.560Z,11.30
2023-05-16T10:03:53.055Z,11.30
2023-05-16T10:06:20.684Z,11.30
2023-05-16T10:08:48.568Z,11.20
2023-05-16T10:11:18.263Z,11.10
2023-05-16T10:13:53.005Z,11.10
2023-05-16T10:16:23.769Z,11.00
2023-05-16T10:18:52.378Z,11.00
2023-05-16T10:21:21.538Z,10.90
2023-05-16T10:23:51.662Z,10.90
2023-05-16T10:26:21.393Z,10.90
2023-05-16T10:28:49.272Z,10.90
2023-05-16T10:31:17.237Z,10.90
2023-05-16T10:33:45.821Z,10.90
2023-05-16T10:36:13.954Z,11.00
2023-05-16T10:38:42.917Z,11.10
2023-05-16T10:41:11.220Z,11.10
2023-05-16T10:43:38.508Z,11.10
2023-05-16T10:46:09.982Z,11.30
2023-05-16T10:48:39.482Z,11.30
2023-05-16T10:51:37.872Z,11.40
2023-05-16T10:54:15.363Z,11.40
2023-05-16T10:56:43.427Z,11.40
2023-05-16T10:59:25.354Z,11.40
2023-05-16T11:01:54.152Z,11.50
2023-05-16T11:04:22.467Z,11.50
2023-05-16T11:06:53.761Z,11.50
2023-05-16T11:09:22.366Z,11.50
2023-05-16T11:11:52.538Z,11.50
2023-05-16T11:14:23.962Z,11.50
2023-05-16T11:17:21.808Z,11.60
2023-05-16T11:19:50.105Z,11.60
2023-05-16T11:22:21.648Z,11.70
2023-05-16T11:25:12.291Z,11.70
2023-05-16T11:27:46.412Z,11.70
2023-05-16T11:30:16.206Z,11.90
2023-05-16T11:32:45.537Z,12.00
2023-05-16T11:35:15.416Z,12.10
2023-05-16T11:37:44.093Z,12.20
2023-05-16T11:40:13.573Z,12.30
2023-05-16T11:42:44.564Z,12.30
2023-05-16T11:45:16.502Z,12.40
2023-05-16T11:47:46.186Z,12.30
2023-05-16T11:50:23.852Z,12.30
2023-05-16T11:52:54.024Z,12.30
2023-05-16T11:55:36.899Z,12.20
2023-05-16T11:58:09.023Z,12.20
2023-05-16T12:00:36.526Z,12.20
2023-05-16T12:03:06.398Z,12.20
2023-05-16T12:05:35.298Z,12.20
2023-05-16T12:08:04.813Z,12.20
2023-05-16T12:10:34.399Z,12.40
2023-05-16T12:13:03.412Z,12.40
2023-05-16T12:15:31.363Z,12.50
2023-05-16T12:17:59.091Z,12.60
2023-05-16T12:20:26.849Z,12.70
2023-05-16T12:22:57.365Z,12.80
2023-05-16T12:25:35.636Z,12.90
2023-05-16T12:28:04.131Z,12.90
2023-05-16T12:30:32.676Z,12.80
2023-05-16T12:33:07.952Z,12.80
2023-05-16T12:35:39.278Z,12.80
2023-05-16T12:38:11.625Z,12.90
2023-05-16T12:40:40.646Z,12.80
2023-05-16T12:43:19.812Z,12.80
2023-05-16T12:45:54.881Z,12.90
2023-05-16T12:48:24.102Z,13.00
2023-05-16T12:50:51.378Z,13.00
2023-05-16T12:53:19.314Z,13.00
2023-05-16T12:55:47.169Z,13.00
2023-05-16T12:58:14.492Z,13.00
2023-05-16T13:00:41.855Z,13.00
2023-05-16T13:03:09.215Z,13.00
2023-05-16T13:05:36.729Z,13.00
2023-05-16T13:08:04.495Z,12.90
2023-05-16T13:10:31.745Z,12.90
2023-05-16T13:13:00.061Z,12.90
2023-05-16T13:15:28.216Z,13.00
2023-05-16T13:17:56.001Z,12.90
2023-05-16T13:20:23.563Z,13.00
2023-05-16T13:22:50.777Z,12.90
2023-05-16T13:25:17.972Z,12.90
2023-05-16T13:27:46.305Z,12.90
2023-05-16T13:30:13.811Z,12.90
2023-05-16T13:32:41.818Z,12.90
2023-05-16T13:35:10.362Z,13.00
2023-05-16T13:37:37.816Z,12.90
2023-05-16T13:40:08.234Z,12.90
2023-05-16T13:42:36.255Z,13.00
2023-05-16T13:45:05.009Z,13.00
2023-05-16T13:47:35.052Z,12.90
2023-05-16T13:50:06.173Z,12.90
2023-05-16T13:52:34.282Z,12.60
2023-05-16T13:55:03.482Z,12.60
2023-05-16T13:57:31.712Z,12.40
2023-05-16T14:00:24.954Z,12.30
2023-05-16T14:02:46.952Z,12.10
2023-05-16T14:05:14.158Z,12.10
2023-05-16T14:07:41.412Z,12.00
2023-05-16T14:10:09.280Z,12.00
2023-05-16T14:12:37.254Z,12.00
2023-05-16T14:15:05.517Z,12.00
2023-05-16T14:17:32.905Z,11.80
2023-05-16T14:20:00.153Z,11.80
2023-05-16T14:22:28.608Z,11.70
2023-05-16T14:24:55.898Z,11.70
2023-05-16T14:27:23.150Z,11.80
2023-05-16T14:29:50.373Z,11.90
2023-05-16T14:32:17.586Z,11.80
2023-05-16T14:34:44.843Z,11.60
2023-05-16T14:37:12.160Z,11.60
2023-05-16T14:39:39.380Z,11.50
2023-05-16T14:42:08.689Z,11.50
2023-05-16T14:44:36.327Z,11.50
2023-05-16T14:47:04.441Z,11.40
2023-05-16T14:49:32.234Z,11.30
2023-05-16T14:51:59.474Z,11.20
2023-05-16T14:54:27.107Z,11.00
2023-05-16T14:56:54.325Z,10.80
2023-05-16T14:59:21.549Z,10.90
2023-05-16T15:01:48.876Z,10.60
2023-05-16T15:04:16.176Z,10.50
2023-05-16T15:06:43.364Z,10.50
2023-05-16T15:09:11.210Z,10.30
2023-05-16T15:11:38.436Z,10.30
2023-05-16T15:14:06.731Z,10.30
2023-05-16T15:16:34.082Z,10.20
2023-05-16T15:19:01.446Z,10.30
2023-05-16T15:21:29.067Z,10.20
2023-05-16T15:23:56.389Z,10.30
2023-05-16T15:26:23.653Z,10.30
2023-05-16T15:28:51.152Z,10.20
2023-05-16T15:31:20.757Z,10.20
2023-05-16T15:33:48.746Z,10.20
2023-05-16T15:36:16.109Z,10.20
2023-05-16T15:38:45.562Z,10.20
2023-05-16T15:41:31.397Z,10.20
2023-05-16T15:44:00.928Z,10.20
2023-05-16T15:46:30.312Z,10.30
2023-05-16T15:48:57.755Z,10.20
2023-05-16T15:51:25.059Z,10.20
2023-05-16T15:53:52.734Z,10.20
2023-05-16T15:56:19.966Z,10.30
2023-05-16T15:58:47.272Z,10.30
2023-05-16T16:01:14.572Z,10.30
2023-05-16T16:03:42.032Z,10.20
2023-05-16T16:06:09.454Z,10.20
2023-05-16T16:08:36.733Z,10.20
2023-05-16T16:11:04.868Z,10.30
2023-05-16T16:13:33.024Z,10.30
2023-05-16T16:16:00.238Z,10.30
2023-05-16T16:18:27.755Z,10.30
2023-05-16T16:20:55.077Z,10.10
2023-05-16T16:23:22.280Z,10.10
2023-05-16T16:25:49.582Z,10.10
2023-05-16T16:28:16.859Z,10.20
2023-05-16T16:30:44.833Z,10.20
2023-05-16T16:33:12.105Z,10.20
2023-05-16T16:35:39.314Z,10.20
2023-05-16T16:38:07.318Z,10.10
2023-05-16T16:40:35.275Z,10.00
2023-05-16T16:43:02.587Z,10.00
2023-05-16T16:45:29.956Z,10.00
2023-05-16T16:47:58.048Z,10.10
2023-05-16T16:50:25.548Z,10.00
2023-05-16T16:52:53.948Z,10.10
2023-05-16T16:55:21.345Z,10.00
2023-05-16T16:57:48.677Z,10.10
2023-05-16T17:00:16.458Z,10.00
2023-05-16T17:02:43.908Z,10.10
2023-05-16T17:05:11.335Z,10.00
2023-05-16T17:07:38.623Z,10.00
2023-05-16T17:10:07.853Z,10.00
2023-05-16T17:12:35.444Z,10.00
2023-05-16T17:15:04.907Z,9.90
2023-05-16T17:17:32.184Z,9.90
2023-05-16T17:19:59.412Z,9.90
2023-05-16T17:22:26.709Z,9.90
2023-05-16T17:24:53.964Z,9.90
2023-05-16T17:27:21.274Z,9.80
2023-05-16T17:29:48.501Z,9.80
2023-05-16T17:32:17.296Z,9.80
2023-05-16T17:34:44.689Z,9.80
2023-05-16T17:37:11.887Z,9.80
2023-05-16T17:39:39.106Z,9.80
2023-05-16T17:42:06.689Z,9.70
2023-05-16T17:44:34.045Z,9.80
2023-05-16T17:47:01.505Z,9.80
2023-05-16T17:49:28.795Z,9.80
2023-05-16T17:51:59.171Z,9.80
2023-05-16T17:54:30.592Z,9.70
2023-05-16T17:56:58.675Z,9.70
2023-05-16T17:59:27.417Z,9.80
2023-05-16T18:01:57.749Z,9.70
2023-05-16T18:04:26.105Z,9.70
2023-05-16T18:06:54.304Z,9.60
2023-05-16T18:09:21.886Z,9.70
2023-05-16T18:11:49.157Z,9.70
2023-05-16T18:14:17.145Z,9.70
2023-05-16T18:16:44.581Z,9.60
2023-05-16T18:19:12.497Z,9.60
2023-05-16T18:21:40.265Z,9.60
2023-05-16T18:24:12.698Z,9.60
2023-05-16T18:26:40.082Z,9.60
2023-05-16T18:29:07.329Z,9.60
2023-05-16T18:31:34.594Z,9.50
2023-05-16T18:34:01.859Z,9.50
2023-05-16T18:36:29.306Z,9.50
2023-05-16T18:38:56.560Z,9.40
2023-05-16T18:41:23.814Z,9.50
2023-05-16T18:43:51.097Z,9.40
2023-05-16T18:46:18.398Z,9.40
2023-05-16T18:48:45.751Z,9.40
2023-05-16T18:51:13.009Z,9.30
2023-05-16T18:53:40.337Z,9.40
2023-05-16T18:56:07.675Z,9.30
2023-05-16T18:58:34.896Z,9.30
2023-05-16T19:01:02.421Z,9.40
2023-05-16T19:03:29.758Z,9.40
2023-05-16T19:05:57.368Z,9.40
2023-05-16T19:08:27.194Z,9.40
2023-05-16T19:10:58.612Z,9.40
2023-05-16T19:13:25.759Z,9.40
2023-05-16T19:15:53.419Z,9.40
2023-05-16T19:18:20.820Z,9.40
2023-05-16T19:20:48.104Z,9.40
2023-05-16T19:23:15.610Z,9.40
2023-05-16T19:25:47.575Z,9.20
2023-05-16T19:28:16.354Z,9.20
2023-05-16T19:30:44.065Z,9.20
2023-05-16T19:33:11.473Z,9.20
2023-05-16T19:35:39.545Z,9.20
2023-05-16T19:38:06.878Z,9.20
2023-05-16T19:40:34.476Z,9.20
2023-05-16T19:43:01.758Z,9.10
2023-05-16T19:45:29.262Z,9.10
2023-05-16T19:47:56.832Z,9.10
2023-05-16T19:50:24.164Z,9.00
2023-05-16T19:52:51.409Z,9.00
2023-05-16T19:55:18.815Z,9.00
2023-05-16T19:57:46.540Z,8.90
2023-05-16T20:00:14.751Z,8.90
2023-05-16T20:02:43.060Z,8.90
2023-05-16T20:05:11.071Z,8.90
2023-05-16T20:07:40.366Z,8.90
2023-05-16T20:10:09.138Z,8.90
2023-05-16T20:12:36.316Z,8.80
2023-05-16T20:15:08.113Z,8.80
2023-05-16T20:17:35.630Z,8.80
2023-05-16T20:20:04.052Z,8.80
2023-05-16T20:22:31.359Z,8.80
2023-05-16T20:24:58.697Z,8.80
2023-05-16T20:27:25.930Z,8.70
2023-05-16T20:29:54.225Z,8.70
2023-05-16T20:32:21.563Z,8.70
2023-05-16T20:34:49.048Z,8.70
2023-05-16T20:37:16.255Z,8.70
2023-05-16T20:39:43.417Z,8.70
2023-05-16T20:42:11.124Z,8.70
2023-05-16T20:44:39.331Z,8.70
2023-05-16T20:47:07.543Z,8.70
2023-05-16T20:49:37.381Z,8.70
2023-05-16T20:52:05.569Z,8.60
2023-05-16T20:54:33.213Z,8.60
2023-05-16T20:57:00.669Z,8.60
2023-05-16T20:59:27.966Z,8.60
